sensor_id;sensor_type;location;lat;lon;timestamp;temperature;humidity
78303;DHT22;67559;24.140;-110.296;2023-10-09T21:28:55;35.00;99.90
78303;DHT22;67559;24.140;-110.296;2023-10-09T21:31:28;34.60;99.90
78303;DHT22;67559;24.140;-110.296;2023-10-09T21:34:01;34.30;99.90
78303;DHT22;67559;24.140;-110.296;2023-10-09T21:36:34;34.30;99.90
78303;DHT22;67559;24.140;-110.296;2023-10-09T21:39:08;34.10;99.90
78303;DHT22;67559;24.140;-110.296;2023-10-09T21:41:39;34.10;99.90
78303;DHT22;67559;24.140;-110.296;2023-10-09T21:44:10;34.10;99.90
78303;DHT22;67559;24.140;-110.296;2023-10-09T21:46:42;34.30;99.90
78303;DHT22;67559;24.140;-110.296;2023-10-09T21:49:13;34.40;99.90
78303;DHT22;67559;24.140;-110.296;2023-10-09T21:51:45;34.40;99.90
78303;DHT22;67559;24.140;-110.296;2023-10-09T21:54:19;34.30;99.90
78303;DHT22;67559;24.140;-110.296;2023-10-09T21:56:50;34.10;99.90
78303;DHT22;67559;24.140;-110.296;2023-10-09T21:59:22;34.00;99.90
78303;DHT22;67559;24.140;-110.296;2023-10-09T22:01:53;33.90;99.90
78303;DHT22;67559;24.140;-110.296;2023-10-09T22:04:25;33.70;99.90
78303;DHT22;67559;24.140;-110.296;2023-10-09T22:06:58;33.60;99.90
78303;DHT22;67559;24.140;-110.296;2023-10-09T22:09:29;33.50;99.90
78303;DHT22;67559;24.140;-110.296;2023-10-09T22:12:01;33.50;99.90
78303;DHT22;67559;24.140;-110.296;2023-10-09T22:14:32;33.50;99.90
78303;DHT22;67559;24.140;-110.296;2023-10-09T22:17:05;33.60;99.90
78303;DHT22;67559;24.140;-110.296;2023-10-09T22:19:37;33.60;99.90
78303;DHT22;67559;24.140;-110.296;2023-10-09T22:22:09;33.70;99.90
78303;DHT22;67559;24.140;-110.296;2023-10-09T22:24:41;33.60;99.90
78303;DHT22;67559;24.140;-110.296;2023-10-09T22:27:18;33.70;99.90
78303;DHT22;67559;24.140;-110.296;2023-10-09T22:30:04;33.60;99.90
78303;DHT22;67559;24.140;-110.296;2023-10-09T22:32:42;33.40;99.90
78303;DHT22;67559;24.140;-110.296;2023-10-09T22:35:13;33.50;99.90
78303;DHT22;67559;24.140;-110.296;2023-10-09T22:37:48;33.50;99.90
78303;DHT22;67559;24.140;-110.296;2023-10-09T22:40:18;33.50;99.90
78303;DHT22;67559;24.140;-110.296;2023-10-09T22:42:55;33.50;99.90
78303;DHT22;67559;24.140;-110.296;2023-10-09T22:45:27;33.50;99.90
78303;DHT22;67559;24.140;-110.296;2023-10-09T22:48:03;33.70;99.90
78303;DHT22;67559;24.140;-110.296;2023-10-09T22:50:34;33.70;99.90
78303;DHT22;67559;24.140;-110.296;2023-10-09T22:53:07;33.60;99.90
78303;DHT22;67559;24.140;-110.296;2023-10-09T22:56:01;33.30;99.90
78303;DHT22;67559;24.140;-110.296;2023-10-09T22:58:36;33.20;99.90
78303;DHT22;67559;24.140;-110.296;2023-10-09T23:01:07;33.30;99.90
78303;DHT22;67559;24.140;-110.296;2023-10-09T23:03:49;33.10;99.90
78303;DHT22;67559;24.140;-110.296;2023-10-09T23:06:38;33.00;99.90
78303;DHT22;67559;24.140;-110.296;2023-10-09T23:09:33;32.90;99.90
78303;DHT22;67559;24.140;-110.296;2023-10-09T23:12:04;32.90;99.90
78303;DHT22;67559;24.140;-110.296;2023-10-09T23:14:36;32.80;99.90
78303;DHT22;67559;24.140;-110.296;2023-10-09T23:17:08;32.60;99.90
78303;DHT22;67559;24.140;-110.296;2023-10-09T23:19:47;32.50;99.90
78303;DHT22;67559;24.140;-110.296;2023-10-09T23:22:24;32.50;99.90
78303;DHT22;67559;24.140;-110.296;2023-10-09T23:25:12;32.50;99.90
78303;DHT22;67559;24.140;-110.296;2023-10-09T23:27:58;32.40;99.90
78303;DHT22;67559;24.140;-110.296;2023-10-09T23:30:46;32.40;99.90
78303;DHT22;67559;24.140;-110.296;2023-10-09T23:33:21;32.30;99.90
78303;DHT22;67559;24.140;-110.296;2023-10-09T23:35:52;32.30;99.90
78303;DHT22;67559;24.140;-110.296;2023-10-09T23:38:26;32.30;99.90
78303;DHT22;67559;24.140;-110.296;2023-10-09T23:40:57;32.20;99.90
78303;DHT22;67559;24.140;-110.296;2023-10-09T23:43:38;32.20;99.90
78303;DHT22;67559;24.140;-110.296;2023-10-09T23:46:22;32.20;99.90
78303;DHT22;67559;24.140;-110.296;2023-10-09T23:48:53;32.30;99.90
78303;DHT22;67559;24.140;-110.296;2023-10-09T23:51:27;32.40;99.90
78303;DHT22;67559;24.140;-110.296;2023-10-09T23:53:58;32.50;99.90
78303;DHT22;67559;24.140;-110.296;2023-10-09T23:56:41;32.40;99.90
78303;DHT22;67559;24.140;-110.296;2023-10-09T23:59:32;32.30;99.90
